sensor_id;sensor_type;location;lat;lon;timestamp;pressure;altitude;pressure_sealevel;temperature;humidity
48053;BME280;33824;51.600;5.718;2023-01-24T00:00:06;103653.16;;;3.98;83.09
48053;BME280;33824;51.600;5.718;2023-01-24T00:02:52;103646.03;;;4.00;82.81
48053;BME280;33824;51.600;5.718;2023-01-24T00:05:19;103654.56;;;4.07;83.27
48053;BME280;33824;51.600;5.718;2023-01-24T00:07:45;103644.06;;;4.05;83.07
48053;BME280;33824;51.600;5.718;2023-01-24T00:10:11;103654.16;;;3.96;83.06
48053;BME280;33824;51.600;5.718;2023-01-24T00:12:37;103646.97;;;3.99;83.23
48053;BME280;33824;51.600;5.718;2023-01-24T00:15:03;103650.44;;;4.00;82.90
48053;BME280;33824;51.600;5.718;2023-01-24T00:17:29;103646.03;;;4.00;82.34
48053;BME280;33824;51.600;5.718;2023-01-24T00:19:54;103646.09;;;3.99;82.71
48053;BME280;33824;51.600;5.718;2023-01-24T00:22:20;103639.47;;;3.88;82.77
48053;BME280;33824;51.600;5.718;2023-01-24T00:24:45;103648.31;;;3.88;83.07
48053;BME280;33824;51.600;5.718;2023-01-24T00:27:12;103636.63;;;3.93;83.41
48053;BME280;33824;51.600;5.718;2023-01-24T00:29:37;103634.13;;;3.90;83.48
48053;BME280;33824;51.600;5.718;2023-01-24T00:32:05;103635.06;;;3.89;83.66
48053;BME280;33824;51.600;5.718;2023-01-24T00:34:30;103632.41;;;3.89;83.41
48053;BME280;33824;51.600;5.718;2023-01-24T00:36:56;103635.44;;;3.80;83.85
48053;BME280;33824;51.600;5.718;2023-01-24T00:39:21;103632.72;;;3.81;83.61
48053;BME280;33824;51.600;5.718;2023-01-24T00:41:47;103637.63;;;3.91;83.46
48053;BME280;33824;51.600;5.718;2023-01-24T00:44:13;103628.66;;;3.95;83.12
48053;BME280;33824;51.600;5.718;2023-01-24T00:46:39;103625.91;;;3.98;83.21
48053;BME280;33824;51.600;5.718;2023-01-24T00:49:04;103627.00;;;3.92;82.99
48053;BME280;33824;51.600;5.718;2023-01-24T00:51:30;103620.25;;;3.85;83.25
48053;BME280;33824;51.600;5.718;2023-01-24T00:53:55;103621.84;;;3.89;82.80
48053;BME280;33824;51.600;5.718;2023-01-24T00:56:21;103620.81;;;3.93;82.79
48053;BME280;33824;51.600;5.718;2023-01-24T00:58:46;103626.91;;;3.95;82.93
48053;BME280;33824;51.600;5.718;2023-01-24T01:01:12;103617.94;;;3.99;83.43
48053;BME280;33824;51.600;5.718;2023-01-24T01:03:38;103616.25;;;3.97;83.23
48053;BME280;33824;51.600;5.718;2023-01-24T01:06:12;103610.56;;;3.85;83.33
48053;BME280;33824;51.600;5.718;2023-01-24T01:08:38;103597.38;;;3.85;83.24
48053;BME280;33824;51.600;5.718;2023-01-24T01:11:04;103612.09;;;3.91;82.99
48053;BME280;33824;51.600;5.718;2023-01-24T01:13:30;103600.59;;;3.92;83.27
48053;BME280;33824;51.600;5.718;2023-01-24T01:16:11;103601.91;;;3.82;82.98
48053;BME280;33824;51.600;5.718;2023-01-24T01:18:37;103607.59;;;3.93;83.36
48053;BME280;33824;51.600;5.718;2023-01-24T01:21:04;103607.47;;;3.96;83.17
48053;BME280;33824;51.600;5.718;2023-01-24T01:23:30;103611.84;;;3.97;83.51
48053;BME280;33824;51.600;5.718;2023-01-24T01:26:05;103608.47;;;3.94;83.08
48053;BME280;33824;51.600;5.718;2023-01-24T01:28:32;103616.97;;;4.00;83.22
48053;BME280;33824;51.600;5.718;2023-01-24T01:30:58;103608.41;;;3.95;83.63
48053;BME280;33824;51.600;5.718;2023-01-24T01:33:24;103611.91;;;3.96;83.76
48053;BME280;33824;51.600;5.718;2023-01-24T01:35:50;103611.84;;;3.97;83.60
48053;BME280;33824;51.600;5.718;2023-01-24T01:38:16;103620.66;;;3.96;83.70
48053;BME280;33824;51.600;5.718;2023-01-24T01:40:43;103624.13;;;3.98;83.65
48053;BME280;33824;51.600;5.718;2023-01-24T01:43:14;103626.91;;;3.95;83.94
48053;BME280;33824;51.600;5.718;2023-01-24T01:45:45;103626.34;;;3.87;83.89
48053;BME280;33824;51.600;5.718;2023-01-24T01:51:19;103626.97;;;3.72;83.42
48053;BME280;33824;51.600;5.718;2023-01-24T01:53:50;103622.97;;;3.83;83.88
48053;BME280;33824;51.600;5.718;2023-01-24T01:58:48;103620.16;;;3.88;84.00
48053;BME280;33824;51.600;5.718;2023-01-24T02:01:13;103614.13;;;3.84;84.21
48053;BME280;33824;51.600;5.718;2023-01-24T02:03:43;103615.84;;;3.85;83.88
48053;BME280;33824;51.600;5.718;2023-01-24T02:06:27;103614.97;;;3.85;84.08
48053;BME280;33824;51.600;5.718;2023-01-24T02:08:56;103614.78;;;3.90;84.36
48053;BME280;33824;51.600;5.718;2023-01-24T02:11:23;103621.66;;;3.94;84.23
48053;BME280;33824;51.600;5.718;2023-01-24T02:14:10;103621.22;;;3.84;84.33
48053;BME280;33824;51.600;5.718;2023-01-24T02:16:55;103618.44;;;3.87;84.70
48053;BME280;33824;51.600;5.718;2023-01-24T02:19:41;103614.44;;;3.77;84.57
48053;BME280;33824;51.600;5.718;2023-01-24T02:22:54;103617.34;;;3.71;84.08
48053;BME280;33824;51.600;5.718;2023-01-24T02:27:50;103622.34;;;3.77;84.44
48053;BME280;33824;51.600;5.718;2023-01-24T02:30:16;103620.44;;;3.80;84.63
48053;BME280;33824;51.600;5.718;2023-01-24T02:32:41;103609.84;;;3.82;84.82
48053;BME280;33824;51.600;5.718;2023-01-24T02:35:21;103615.47;;;3.73;84.01
48053;BME280;33824;51.600;5.718;2023-01-24T02:37:47;103615.13;;;3.82;85.16
48053;BME280;33824;51.600;5.718;2023-01-24T02:40:13;103618.44;;;3.87;84.77
48053;BME280;33824;51.600;5.718;2023-01-24T02:42:38;103611.44;;;3.86;84.72
48053;BME280;33824;51.600;5.718;2023-01-24T02:45:14;103618.94;;;3.75;84.44
48053;BME280;33824;51.600;5.718;2023-01-24T02:47:45;103623.91;;;3.82;84.42
48053;BME280;33824;51.600;5.718;2023-01-24T02:50:12;103625.50;;;3.86;84.82
48053;BME280;33824;51.600;5.718;2023-01-24T02:52:38;103621.94;;;3.88;84.70
48053;BME280;33824;51.600;5.718;2023-01-24T02:55:23;103609.97;;;3.79;84.49
48053;BME280;33824;51.600;5.718;2023-01-24T02:57:50;103607.66;;;3.71;84.44
48053;BME280;33824;51.600;5.718;2023-01-24T03:00:42;103612.97;;;3.48;84.48
48053;BME280;33824;51.600;5.718;2023-01-24T03:03:09;103616.00;;;3.61;84.93
48053;BME280;33824;51.600;5.718;2023-01-24T03:05:35;103611.59;;;3.61;85.06
48053;BME280;33824;51.600;5.718;2023-01-24T03:08:19;103609.69;;;3.65;84.94
48053;BME280;33824;51.600;5.718;2023-01-24T03:10:45;103607.94;;;3.64;84.91
48053;BME280;33824;51.600;5.718;2023-01-24T03:13:12;103612.53;;;3.59;84.95
48053;BME280;33824;51.600;5.718;2023-01-24T03:16:00;103598.72;;;3.54;85.24
48053;BME280;33824;51.600;5.718;2023-01-24T03:18:45;103602.00;;;3.59;85.58
48053;BME280;33824;51.600;5.718;2023-01-24T03:21:29;103604.50;;;3.62;85.54
48053;BME280;33824;51.600;5.718;2023-01-24T03:24:13;103609.69;;;3.65;85.56
48053;BME280;33824;51.600;5.718;2023-01-24T03:26:57;103610.34;;;3.70;85.79
48053;BME280;33824;51.600;5.718;2023-01-24T03:29:41;103602.38;;;3.71;85.58
48053;BME280;33824;51.600;5.718;2023-01-24T03:32:25;103601.63;;;3.68;86.36
48053;BME280;33824;51.600;5.718;2023-01-24T03:35:10;103598.13;;;3.67;85.58
48053;BME280;33824;51.600;5.718;2023-01-24T03:37:35;103594.63;;;3.67;85.50
48053;BME280;33824;51.600;5.718;2023-01-24T03:40:19;103596.53;;;3.63;85.88
48053;BME280;33824;51.600;5.718;2023-01-24T03:42:45;103607.22;;;3.60;85.61
48053;BME280;33824;51.600;5.718;2023-01-24T03:47:46;103599.31;;;3.60;85.43
48053;BME280;33824;51.600;5.718;2023-01-24T03:53:11;103602.81;;;3.61;85.59
48053;BME280;33824;51.600;5.718;2023-01-24T03:55:37;103601.75;;;3.65;85.67
48053;BME280;33824;51.600;5.718;2023-01-24T03:58:03;103602.53;;;3.67;85.87
48053;BME280;33824;51.600;5.718;2023-01-24T04:00:29;103603.34;;;3.69;85.66
48053;BME280;33824;51.600;5.718;2023-01-24T04:02:55;103602.50;;;3.68;85.54
48053;BME280;33824;51.600;5.718;2023-01-24T04:05:21;103602.00;;;3.59;85.66
48053;BME280;33824;51.600;5.718;2023-01-24T04:07:47;103610.09;;;3.54;85.76
48053;BME280;33824;51.600;5.718;2023-01-24T04:10:13;103607.44;;;3.54;86.13
48053;BME280;33824;51.600;5.718;2023-01-24T04:12:42;103606.66;;;3.52;85.96
48053;BME280;33824;51.600;5.718;2023-01-24T04:15:09;103612.25;;;3.45;85.83
48053;BME280;33824;51.600;5.718;2023-01-24T04:17:38;103605.13;;;3.47;86.35
48053;BME280;33824;51.600;5.718;2023-01-24T04:20:04;103605.13;;;3.47;86.10
48053;BME280;33824;51.600;5.718;2023-01-24T04:22:30;103596.25;;;3.49;85.98
48053;BME280;33824;51.600;5.718;2023-01-24T04:24:55;103607.53;;;3.53;85.54
48053;BME280;33824;51.600;5.718;2023-01-24T04:27:21;103604.03;;;3.52;85.52
48053;BME280;33824;51.600;5.718;2023-01-24T04:29:46;103596.91;;;3.54;85.63
48053;BME280;33824;51.600;5.718;2023-01-24T04:32:12;103603.66;;;3.61;85.77
48053;BME280;33824;51.600;5.718;2023-01-24T04:34:38;103610.00;;;3.57;85.52
48053;BME280;33824;51.600;5.718;2023-01-24T04:37:03;103600.47;;;3.53;85.96
48053;BME280;33824;51.600;5.718;2023-01-24T04:39:29;103605.66;;;3.55;86.00
48053;BME280;33824;51.600;5.718;2023-01-24T04:41:54;103614.31;;;3.58;86.01
48053;BME280;33824;51.600;5.718;2023-01-24T04:44:20;103608.50;;;3.50;85.77
48053;BME280;33824;51.600;5.718;2023-01-24T04:46:45;103610.59;;;3.42;86.21
48053;BME280;33824;51.600;5.718;2023-01-24T04:49:11;103623.50;;;3.50;85.88
48053;BME280;33824;51.600;5.718;2023-01-24T04:51:38;103613.97;;;3.46;85.99
48053;BME280;33824;51.600;5.718;2023-01-24T04:54:11;103617.81;;;3.37;86.12
48053;BME280;33824;51.600;5.718;2023-01-24T04:56:37;103613.47;;;3.36;86.34
48053;BME280;33824;51.600;5.718;2023-01-24T04:59:03;103610.16;;;3.31;85.74
48053;BME280;33824;51.600;5.718;2023-01-24T05:01:28;103610.94;;;3.33;86.02
48053;BME280;33824;51.600;5.718;2023-01-24T05:03:54;103613.34;;;3.39;85.85
48053;BME280;33824;51.600;5.718;2023-01-24T05:06:28;103610.91;;;3.34;86.14
48053;BME280;33824;51.600;5.718;2023-01-24T05:08:55;103615.00;;;3.42;86.18
48053;BME280;33824;51.600;5.718;2023-01-24T05:11:21;103617.81;;;3.37;86.18
48053;BME280;33824;51.600;5.718;2023-01-24T05:13:48;103614.44;;;3.33;85.95
48053;BME280;33824;51.600;5.718;2023-01-24T05:16:13;103613.53;;;3.34;85.98
48053;BME280;33824;51.600;5.718;2023-01-24T05:18:39;103613.25;;;3.42;86.21
48053;BME280;33824;51.600;5.718;2023-01-24T05:21:11;103620.50;;;3.35;86.05
48053;BME280;33824;51.600;5.718;2023-01-24T05:23:58;103621.66;;;3.28;86.73
48053;BME280;33824;51.600;5.718;2023-01-24T05:26:25;103622.78;;;3.23;86.49
48053;BME280;33824;51.600;5.718;2023-01-24T05:28:51;103622.84;;;3.21;86.89
48053;BME280;33824;51.600;5.718;2023-01-24T05:31:17;103628.97;;;3.22;86.64
48053;BME280;33824;51.600;5.718;2023-01-24T05:33:43;103630.50;;;3.27;86.73
48053;BME280;33824;51.600;5.718;2023-01-24T05:36:18;103626.28;;;3.23;86.59
48053;BME280;33824;51.600;5.718;2023-01-24T05:38:44;103625.34;;;3.24;86.53
48053;BME280;33824;51.600;5.718;2023-01-24T05:41:12;103613.44;;;3.14;86.97
48053;BME280;33824;51.600;5.718;2023-01-24T05:43:38;103634.38;;;3.19;87.08
48053;BME280;33824;51.600;5.718;2023-01-24T05:46:07;103627.81;;;3.06;87.24
48053;BME280;33824;51.600;5.718;2023-01-24T05:48:34;103635.97;;;3.00;87.85
48053;BME280;33824;51.600;5.718;2023-01-24T05:51:03;103632.59;;;2.96;87.62
48053;BME280;33824;51.600;5.718;2023-01-24T05:53:30;103649.03;;;3.03;87.69
48053;BME280;33824;51.600;5.718;2023-01-24T05:55:57;103643.66;;;3.06;87.32
48053;BME280;33824;51.600;5.718;2023-01-24T05:58:24;103644.47;;;3.08;87.77
48053;BME280;33824;51.600;5.718;2023-01-24T06:00:51;103650.34;;;3.14;87.37
48053;BME280;33824;51.600;5.718;2023-01-24T06:03:16;103645.09;;;3.14;87.73
48053;BME280;33824;51.600;5.718;2023-01-24T06:05:50;103660.19;;;3.09;87.35
48053;BME280;33824;51.600;5.718;2023-01-24T06:08:16;103653.00;;;3.14;87.57
48053;BME280;33824;51.600;5.718;2023-01-24T06:10:42;103652.16;;;3.12;87.70
48053;BME280;33824;51.600;5.718;2023-01-24T06:13:08;103649.72;;;3.08;88.08
48053;BME280;33824;51.600;5.718;2023-01-24T06:15:34;103656.59;;;2.88;88.46
48053;BME280;33824;51.600;5.718;2023-01-24T06:18:01;103650.91;;;2.76;89.15
48053;BME280;33824;51.600;5.718;2023-01-24T06:20:27;103653.25;;;2.83;89.08
48053;BME280;33824;51.600;5.718;2023-01-24T06:23:02;103662.44;;;2.73;88.59
48053;BME280;33824;51.600;5.718;2023-01-24T06:25:28;103660.66;;;2.74;88.53
48053;BME280;33824;51.600;5.718;2023-01-24T06:27:54;103667.34;;;2.82;88.36
48053;BME280;33824;51.600;5.718;2023-01-24T06:30:20;103669.03;;;2.85;88.21
48053;BME280;33824;51.600;5.718;2023-01-24T06:38:22;103679.63;;;2.83;87.81
48053;BME280;33824;51.600;5.718;2023-01-24T06:40:55;103681.22;;;2.87;87.72
48053;BME280;33824;51.600;5.718;2023-01-24T06:43:21;103668.00;;;2.89;88.04
48053;BME280;33824;51.600;5.718;2023-01-24T06:45:47;103676.59;;;2.94;87.91
48053;BME280;33824;51.600;5.718;2023-01-24T06:48:13;103675.69;;;2.95;88.21
48053;BME280;33824;51.600;5.718;2023-01-24T06:50:39;103672.13;;;2.96;88.39
48053;BME280;33824;51.600;5.718;2023-01-24T06:53:04;103671.09;;;2.77;88.26
48053;BME280;33824;51.600;5.718;2023-01-24T06:55:30;103672.84;;;2.76;88.42
48053;BME280;33824;51.600;5.718;2023-01-24T06:57:57;103679.94;;;2.74;88.27
48053;BME280;33824;51.600;5.718;2023-01-24T07:00:23;103677.09;;;2.80;88.21
48053;BME280;33824;51.600;5.718;2023-01-24T07:02:59;103676.50;;;2.72;87.60
48053;BME280;33824;51.600;5.718;2023-01-24T07:05:26;103677.84;;;2.84;87.73
48053;BME280;33824;51.600;5.718;2023-01-24T07:07:52;103689.28;;;2.83;87.86
48053;BME280;33824;51.600;5.718;2023-01-24T07:10:18;103687.53;;;2.83;87.82
48053;BME280;33824;51.600;5.718;2023-01-24T07:12:43;103691.19;;;2.79;88.65
48053;BME280;33824;51.600;5.718;2023-01-24T07:15:10;103690.16;;;2.83;88.16
48053;BME280;33824;51.600;5.718;2023-01-24T07:17:36;103690.91;;;2.87;88.40
48053;BME280;33824;51.600;5.718;2023-01-24T07:20:02;103692.69;;;2.86;88.16
48053;BME280;33824;51.600;5.718;2023-01-24T07:22:28;103704.25;;;2.82;88.26
48053;BME280;33824;51.600;5.718;2023-01-24T07:24:54;103710.66;;;2.75;88.38
48053;BME280;33824;51.600;5.718;2023-01-24T07:27:20;103708.41;;;2.65;89.04
48053;BME280;33824;51.600;5.718;2023-01-24T07:29:46;103706.00;;;2.59;89.09
48053;BME280;33824;51.600;5.718;2023-01-24T07:32:11;103712.75;;;2.66;88.42
48053;BME280;33824;51.600;5.718;2023-01-24T07:34:37;103721.41;;;2.69;88.09
48053;BME280;33824;51.600;5.718;2023-01-24T07:37:08;103726.72;;;2.68;88.20
48053;BME280;33824;51.600;5.718;2023-01-24T07:39:34;103726.56;;;2.72;87.71
48053;BME280;33824;51.600;5.718;2023-01-24T07:41:59;103720.31;;;2.75;88.49
48053;BME280;33824;51.600;5.718;2023-01-24T07:44:25;103723.81;;;2.75;88.35
48053;BME280;33824;51.600;5.718;2023-01-24T07:46:50;103724.66;;;2.77;87.72
48053;BME280;33824;51.600;5.718;2023-01-24T07:49:16;103724.41;;;2.83;87.72
48053;BME280;33824;51.600;5.718;2023-01-24T07:51:41;103725.13;;;2.88;87.70
48053;BME280;33824;51.600;5.718;2023-01-24T07:54:08;103727.69;;;2.90;87.60
48053;BME280;33824;51.600;5.718;2023-01-24T07:56:33;103736.69;;;2.84;88.09
48053;BME280;33824;51.600;5.718;2023-01-24T07:59:01;103727.94;;;2.82;88.29
48053;BME280;33824;51.600;5.718;2023-01-24T08:01:26;103731.69;;;2.77;88.23
48053;BME280;33824;51.600;5.718;2023-01-24T08:03:57;103730.34;;;2.65;88.52
48053;BME280;33824;51.600;5.718;2023-01-24T08:06:23;103738.72;;;2.76;88.62
48053;BME280;33824;51.600;5.718;2023-01-24T08:08:49;103743.75;;;2.82;88.13
48053;BME280;33824;51.600;5.718;2023-01-24T08:11:14;103733.72;;;2.69;88.56
48053;BME280;33824;51.600;5.718;2023-01-24T08:13:46;103737.75;;;2.54;88.84
48053;BME280;33824;51.600;5.718;2023-01-24T08:16:11;103737.22;;;2.69;88.66
48053;BME280;33824;51.600;5.718;2023-01-24T08:18:38;103741.28;;;2.78;88.45
48053;BME280;33824;51.600;5.718;2023-01-24T08:21:04;103739.00;;;2.69;88.29
48053;BME280;33824;51.600;5.718;2023-01-24T08:23:31;103740.78;;;2.67;87.76
48053;BME280;33824;51.600;5.718;2023-01-24T08:25:57;103742.50;;;2.69;88.01
48053;BME280;33824;51.600;5.718;2023-01-24T08:28:23;103742.34;;;2.74;87.77
48053;BME280;33824;51.600;5.718;2023-01-24T08:30:49;103747.78;;;2.68;88.04
48053;BME280;33824;51.600;5.718;2023-01-24T08:33:14;103751.28;;;2.68;87.93
48053;BME280;33824;51.600;5.718;2023-01-24T08:35:44;103746.56;;;2.78;88.13
48053;BME280;33824;51.600;5.718;2023-01-24T08:38:12;103748.44;;;2.74;88.07
48053;BME280;33824;51.600;5.718;2023-01-24T08:40:37;103752.91;;;2.72;88.22
48053;BME280;33824;51.600;5.718;2023-01-24T08:43:03;103756.41;;;2.73;88.23
48053;BME280;33824;51.600;5.718;2023-01-24T08:45:29;103755.44;;;2.75;88.27
48053;BME280;33824;51.600;5.718;2023-01-24T08:47:55;103748.25;;;2.80;88.47
48053;BME280;33824;51.600;5.718;2023-01-24T08:50:21;103755.06;;;2.86;88.35
48053;BME280;33824;51.600;5.718;2023-01-24T08:52:49;103762.66;;;2.95;88.32
48053;BME280;33824;51.600;5.718;2023-01-24T08:55:15;103767.78;;;3.00;88.27
48053;BME280;33824;51.600;5.718;2023-01-24T08:57:42;103761.69;;;2.98;88.11
48053;BME280;33824;51.600;5.718;2023-01-24T09:00:08;103767.69;;;3.01;88.04
48053;BME280;33824;51.600;5.718;2023-01-24T09:02:34;103771.09;;;3.05;88.12
48053;BME280;33824;51.600;5.718;2023-01-24T09:05:04;103776.03;;;3.14;87.77
48053;BME280;33824;51.600;5.718;2023-01-24T09:07:30;103771.56;;;3.16;87.47
48053;BME280;33824;51.600;5.718;2023-01-24T09:09:55;103765.53;;;3.12;87.21
48053;BME280;33824;51.600;5.718;2023-01-24T09:12:21;103778.44;;;3.20;87.01
48053;BME280;33824;51.600;5.718;2023-01-24T09:14:47;103772.22;;;3.22;86.73
48053;BME280;33824;51.600;5.718;2023-01-24T09:17:12;103771.31;;;3.23;86.40
48053;BME280;33824;51.600;5.718;2023-01-24T09:19:38;103765.06;;;3.26;86.83
48053;BME280;33824;51.600;5.718;2023-01-24T09:22:04;103773.13;;;3.21;86.62
48053;BME280;33824;51.600;5.718;2023-01-24T09:24:29;103772.09;;;3.25;86.75
48053;BME280;33824;51.600;5.718;2023-01-24T09:26:58;103779.00;;;3.29;86.43
48053;BME280;33824;51.600;5.718;2023-01-24T09:29:24;103784.09;;;3.34;86.63
48053;BME280;33824;51.600;5.718;2023-01-24T09:31:49;103780.38;;;3.39;86.17
48053;BME280;33824;51.600;5.718;2023-01-24T09:34:15;103781.19;;;3.42;86.46
48053;BME280;33824;51.600;5.718;2023-01-24T09:36:41;103779.50;;;3.39;86.27
48053;BME280;33824;51.600;5.718;2023-01-24T09:39:06;103778.75;;;3.35;86.18
48053;BME280;33824;51.600;5.718;2023-01-24T09:41:44;103779.16;;;3.25;86.12
48053;BME280;33824;51.600;5.718;2023-01-24T09:47:25;103780.59;;;3.33;85.85
48053;BME280;33824;51.600;5.718;2023-01-24T09:50:04;103787.41;;;3.39;85.74
48053;BME280;33824;51.600;5.718;2023-01-24T09:52:40;103788.28;;;3.39;85.30
48053;BME280;33824;51.600;5.718;2023-01-24T09:55:13;103776.13;;;3.35;84.87
48053;BME280;33824;51.600;5.718;2023-01-24T09:57:49;103785.25;;;3.27;84.08
48053;BME280;33824;51.600;5.718;2023-01-24T10:00:21;103791.19;;;3.32;84.59
48053;BME280;33824;51.600;5.718;2023-01-24T10:02:47;103797.06;;;3.40;84.56
48053;BME280;33824;51.600;5.718;2023-01-24T10:05:16;103794.56;;;3.35;84.08
48053;BME280;33824;51.600;5.718;2023-01-24T10:10:28;103786.50;;;3.40;84.91
48053;BME280;33824;51.600;5.718;2023-01-24T10:13:13;103791.09;;;3.10;84.96
48053;BME280;33824;51.600;5.718;2023-01-24T10:18:25;103793.72;;;3.12;85.05
48053;BME280;33824;51.600;5.718;2023-01-24T10:21:02;103790.28;;;3.08;84.91
48053;BME280;33824;51.600;5.718;2023-01-24T10:23:41;103788.63;;;3.06;84.82
48053;BME280;33824;51.600;5.718;2023-01-24T10:26:22;103790.06;;;2.89;84.69
48053;BME280;33824;51.600;5.718;2023-01-24T10:28:53;103795.00;;;3.00;85.16
48053;BME280;33824;51.600;5.718;2023-01-24T10:31:24;103792.44;;;2.97;84.88
48053;BME280;33824;51.600;5.718;2023-01-24T10:34:00;103796.16;;;2.92;85.10
48053;BME280;33824;51.600;5.718;2023-01-24T10:36:48;103797.91;;;2.93;85.67
48053;BME280;33824;51.600;5.718;2023-01-24T10:39:15;103791.28;;;2.81;85.49
48053;BME280;33824;51.600;5.718;2023-01-24T10:41:41;103792.97;;;2.82;85.22
48053;BME280;33824;51.600;5.718;2023-01-24T10:44:30;103795.69;;;2.54;85.30
48053;BME280;33824;51.600;5.718;2023-01-24T10:49:30;103783.88;;;2.66;85.90
48053;BME280;33824;51.600;5.718;2023-01-24T10:57:42;103790.41;;;2.80;85.19
48053;BME280;33824;51.600;5.718;2023-01-24T11:00:18;103782.34;;;2.85;85.00
48053;BME280;33824;51.600;5.718;2023-01-24T11:02:55;103789.59;;;2.78;84.88
48053;BME280;33824;51.600;5.718;2023-01-24T11:05:22;103782.38;;;2.83;85.01
48053;BME280;33824;51.600;5.718;2023-01-24T11:07:53;103786.53;;;2.90;84.62
48053;BME280;33824;51.600;5.718;2023-01-24T11:10:25;103785.34;;;2.99;84.49
48053;BME280;33824;51.600;5.718;2023-01-24T11:12:54;103776.78;;;3.17;84.41
48053;BME280;33824;51.600;5.718;2023-01-24T11:15:26;103781.03;;;3.21;84.16
48053;BME280;33824;51.600;5.718;2023-01-24T11:17:58;103777.53;;;3.21;83.66
48053;BME280;33824;51.600;5.718;2023-01-24T11:20:30;103771.25;;;3.25;83.89
48053;BME280;33824;51.600;5.718;2023-01-24T11:23:08;103772.06;;;3.27;83.89
48053;BME280;33824;51.600;5.718;2023-01-24T11:25:35;103777.25;;;3.28;83.69
48053;BME280;33824;51.600;5.718;2023-01-24T11:28:01;103770.84;;;3.35;83.66
48053;BME280;33824;51.600;5.718;2023-01-24T11:30:27;103762.25;;;3.30;83.79
48053;BME280;33824;51.600;5.718;2023-01-24T11:36:06;103762.94;;;3.35;84.37
48053;BME280;33824;51.600;5.718;2023-01-24T11:38:40;103764.50;;;3.41;83.82
48053;BME280;33824;51.600;5.718;2023-01-24T11:41:14;103757.19;;;3.48;83.79
48053;BME280;33824;51.600;5.718;2023-01-24T11:48:56;103751.19;;;3.44;82.98
48053;BME280;33824;51.600;5.718;2023-01-24T12:05:55;103737.34;;;3.14;83.81
48053;BME280;33824;51.600;5.718;2023-01-24T12:16:40;103709.41;;;2.85;84.03
48053;BME280;33824;51.600;5.718;2023-01-24T12:19:23;103712.31;;;2.78;84.37
48053;BME280;33824;51.600;5.718;2023-01-24T12:21:57;103708.16;;;2.96;85.13
48053;BME280;33824;51.600;5.718;2023-01-24T12:24:32;103707.34;;;2.94;84.58
48053;BME280;33824;51.600;5.718;2023-01-24T12:27:15;103707.53;;;2.89;84.39
48053;BME280;33824;51.600;5.718;2023-01-24T12:32:30;103701.72;;;3.04;83.48
48053;BME280;33824;51.600;5.718;2023-01-24T12:41:15;103690.97;;;3.09;83.36
48053;BME280;33824;51.600;5.718;2023-01-24T12:52:07;103684.16;;;3.03;83.78
48053;BME280;33824;51.600;5.718;2023-01-24T12:54:43;103676.13;;;3.06;83.78
48053;BME280;33824;51.600;5.718;2023-01-24T12:59:35;103676.47;;;3.20;83.25
48053;BME280;33824;51.600;5.718;2023-01-24T13:02:27;103676.59;;;3.17;82.98
48053;BME280;33824;51.600;5.718;2023-01-24T13:05:17;103680.66;;;3.03;82.67
48053;BME280;33824;51.600;5.718;2023-01-24T13:10:41;103681.00;;;3.17;82.56
48053;BME280;33824;51.600;5.718;2023-01-24T13:13:28;103671.44;;;3.14;82.37
48053;BME280;33824;51.600;5.718;2023-01-24T13:22:30;103683.59;;;2.95;83.10
48053;BME280;33824;51.600;5.718;2023-01-24T13:24:57;103677.28;;;2.99;83.01
48053;BME280;33824;51.600;5.718;2023-01-24T13:32:42;103674.53;;;3.25;83.01
48053;BME280;33824;51.600;5.718;2023-01-24T13:35:20;103678.78;;;3.29;82.61
48053;BME280;33824;51.600;5.718;2023-01-24T13:38:04;103672.41;;;3.35;82.39
48053;BME280;33824;51.600;5.718;2023-01-24T13:40:33;103664.31;;;3.16;82.26
48053;BME280;33824;51.600;5.718;2023-01-24T13:43:02;103664.13;;;3.22;82.23
48053;BME280;33824;51.600;5.718;2023-01-24T13:47:56;103663.06;;;3.03;82.76
48053;BME280;33824;51.600;5.718;2023-01-24T13:50:29;103665.56;;;3.08;82.59
48053;BME280;33824;51.600;5.718;2023-01-24T13:52:56;103668.09;;;3.09;82.89
48053;BME280;33824;51.600;5.718;2023-01-24T14:00:25;103662.78;;;3.11;82.96
48053;BME280;33824;51.600;5.718;2023-01-24T14:08:01;103665.56;;;3.08;82.67
48053;BME280;33824;51.600;5.718;2023-01-24T14:10:38;103655.91;;;3.07;82.92
48053;BME280;33824;51.600;5.718;2023-01-24T14:13:10;103665.47;;;3.09;83.44
48053;BME280;33824;51.600;5.718;2023-01-24T14:15:52;103658.09;;;2.96;83.25
48053;BME280;33824;51.600;5.718;2023-01-24T14:18:47;103657.38;;;2.90;83.20
48053;BME280;33824;51.600;5.718;2023-01-24T14:21:20;103662.47;;;2.97;83.23
48053;BME280;33824;51.600;5.718;2023-01-24T14:23:51;103662.06;;;3.07;83.42
48053;BME280;33824;51.600;5.718;2023-01-24T14:26:21;103665.91;;;2.97;83.33
48053;BME280;33824;51.600;5.718;2023-01-24T14:28:51;103662.16;;;3.04;83.58
48053;BME280;33824;51.600;5.718;2023-01-24T14:31:27;103666.38;;;3.08;82.91
48053;BME280;33824;51.600;5.718;2023-01-24T14:34:26;103672.22;;;3.16;83.39
48053;BME280;33824;51.600;5.718;2023-01-24T14:37:02;103675.69;;;3.18;83.44
48053;BME280;33824;51.600;5.718;2023-01-24T14:39:28;103681.00;;;3.17;83.84
48053;BME280;33824;51.600;5.718;2023-01-24T14:42:05;103674.28;;;3.08;83.97
48053;BME280;33824;51.600;5.718;2023-01-24T14:44:33;103678.81;;;3.05;83.56
48053;BME280;33824;51.600;5.718;2023-01-24T14:47:03;103679.91;;;2.99;83.25
48053;BME280;33824;51.600;5.718;2023-01-24T14:49:43;103670.28;;;2.98;83.27
48053;BME280;33824;51.600;5.718;2023-01-24T14:55:00;103681.41;;;3.06;83.39
48053;BME280;33824;51.600;5.718;2023-01-24T14:57:29;103676.03;;;3.09;83.87
48053;BME280;33824;51.600;5.718;2023-01-24T15:00:05;103686.34;;;3.15;83.31
48053;BME280;33824;51.600;5.718;2023-01-24T15:02:33;103679.69;;;3.28;83.22
48053;BME280;33824;51.600;5.718;2023-01-24T15:04:59;103672.75;;;3.26;83.20
48053;BME280;33824;51.600;5.718;2023-01-24T15:07:25;103682.44;;;3.25;83.75
48053;BME280;33824;51.600;5.718;2023-01-24T15:09:51;103683.22;;;3.27;83.41